sensor_id;sensor_type;location;lat;lon;timestamp;temperature;humidity
23395;DHT22;11870;53.084;18.206;2022-11-14T00:00:32;9.00;99.90
23395;DHT22;11870;53.084;18.206;2022-11-14T00:03:10;8.90;99.90
23395;DHT22;11870;53.084;18.206;2022-11-14T00:05:41;9.00;99.90
23395;DHT22;11870;53.084;18.206;2022-11-14T00:08:20;8.80;99.90
23395;DHT22;11870;53.084;18.206;2022-11-14T00:10:47;8.70;99.90
23395;DHT22;11870;53.084;18.206;2022-11-14T00:13:15;8.80;99.90
23395;DHT22;11870;53.084;18.206;2022-11-14T00:15:42;8.80;99.90
23395;DHT22;11870;53.084;18.206;2022-11-14T00:18:07;8.70;99.90
23395;DHT22;11870;53.084;18.206;2022-11-14T00:20:33;8.70;99.90
23395;DHT22;11870;53.084;18.206;2022-11-14T00:22:59;8.70;99.90
23395;DHT22;11870;53.084;18.206;2022-11-14T00:25:25;8.70;99.90
23395;DHT22;11870;53.084;18.206;2022-11-14T00:27:51;8.70;99.90
23395;DHT22;11870;53.084;18.206;2022-11-14T00:30:17;8.70;99.90
23395;DHT22;11870;53.084;18.206;2022-11-14T00:32:43;8.80;99.90
23395;DHT22;11870;53.084;18.206;2022-11-14T00:35:08;8.80;99.90
23395;DHT22;11870;53.084;18.206;2022-11-14T00:37:34;8.80;99.90
23395;DHT22;11870;53.084;18.206;2022-11-14T00:40:00;8.70;99.90
23395;DHT22;11870;53.084;18.206;2022-11-14T00:42:26;8.70;99.90
23395;DHT22;11870;53.084;18.206;2022-11-14T00:44:52;8.70;99.90
23395;DHT22;11870;53.084;18.206;2022-11-14T00:47:18;8.70;99.90
23395;DHT22;11870;53.084;18.206;2022-11-14T00:49:44;8.60;99.90
23395;DHT22;11870;53.084;18.206;2022-11-14T00:52:10;8.60;99.90
23395;DHT22;11870;53.084;18.206;2022-11-14T00:54:36;8.60;99.90
23395;DHT22;11870;53.084;18.206;2022-11-14T00:57:02;8.60;99.90
23395;DHT22;11870;53.084;18.206;2022-11-14T00:59:27;8.60;99.90
23395;DHT22;11870;53.084;18.206;2022-11-14T01:01:53;8.50;99.90
23395;DHT22;11870;53.084;18.206;2022-11-14T01:04:19;8.50;99.90
23395;DHT22;11870;53.084;18.206;2022-11-14T01:06:45;8.50;99.90
23395;DHT22;11870;53.084;18.206;2022-11-14T01:09:11;8.40;99.90
23395;DHT22;11870;53.084;18.206;2022-11-14T01:11:37;8.40;99.90
23395;DHT22;11870;53.084;18.206;2022-11-14T01:14:06;8.50;99.90
23395;DHT22;11870;53.084;18.206;2022-11-14T01:16:32;8.40;99.90
23395;DHT22;11870;53.084;18.206;2022-11-14T01:18:58;8.50;99.90
23395;DHT22;11870;53.084;18.206;2022-11-14T01:21:24;8.50;99.90
23395;DHT22;11870;53.084;18.206;2022-11-14T01:23:50;8.40;99.90
23395;DHT22;11870;53.084;18.206;2022-11-14T01:26:16;8.40;99.90
23395;DHT22;11870;53.084;18.206;2022-11-14T01:28:42;8.40;99.90
23395;DHT22;11870;53.084;18.206;2022-11-14T01:31:09;8.40;99.90
23395;DHT22;11870;53.084;18.206;2022-11-14T01:33:35;8.40;99.90
23395;DHT22;11870;53.084;18.206;2022-11-14T01:36:02;8.40;99.90
23395;DHT22;11870;53.084;18.206;2022-11-14T01:38:28;8.40;99.90
23395;DHT22;11870;53.084;18.206;2022-11-14T01:40:54;8.30;99.90
23395;DHT22;11870;53.084;18.206;2022-11-14T01:43:28;8.30;99.90
23395;DHT22;11870;53.084;18.206;2022-11-14T01:51:36;8.30;99.90
23395;DHT22;11870;53.084;18.206;2022-11-14T01:54:08;8.30;99.90
23395;DHT22;11870;53.084;18.206;2022-11-14T01:56:41;8.20;99.90
23395;DHT22;11870;53.084;18.206;2022-11-14T01:59:10;8.20;99.90
23395;DHT22;11870;53.084;18.206;2022-11-14T02:01:50;8.20;99.90
23395;DHT22;11870;53.084;18.206;2022-11-14T02:04:26;8.20;99.90
23395;DHT22;11870;53.084;18.206;2022-11-14T02:06:57;8.10;99.90
23395;DHT22;11870;53.084;18.206;2022-11-14T02:09:24;8.10;99.90
23395;DHT22;11870;53.084;18.206;2022-11-14T02:11:53;8.10;99.90
23395;DHT22;11870;53.084;18.206;2022-11-14T02:14:19;8.10;99.90
23395;DHT22;11870;53.084;18.206;2022-11-14T02:16:45;8.10;99.90
23395;DHT22;11870;53.084;18.206;2022-11-14T02:19:13;8.90;99.90
23395;DHT22;11870;53.084;18.206;2022-11-14T02:21:39;8.10;99.90
23395;DHT22;11870;53.084;18.206;2022-11-14T02:24:12;8.10;99.90
23395;DHT22;11870;53.084;18.206;2022-11-14T02:26:40;8.20;99.90
23395;DHT22;11870;53.084;18.206;2022-11-14T02:29:08;8.20;99.90
23395;DHT22;11870;53.084;18.206;2022-11-14T02:31:34;8.20;99.90
23395;DHT22;11870;53.084;18.206;2022-11-14T02:34:00;8.20;99.90
23395;DHT22;11870;53.084;18.206;2022-11-14T02:36:26;8.20;99.90
23395;DHT22;11870;53.084;18.206;2022-11-14T02:38:52;8.20;99.90
23395;DHT22;11870;53.084;18.206;2022-11-14T02:41:18;8.20;99.90
23395;DHT22;11870;53.084;18.206;2022-11-14T02:43:43;8.20;99.90
23395;DHT22;11870;53.084;18.206;2022-11-14T02:46:10;8.30;99.90
23395;DHT22;11870;53.084;18.206;2022-11-14T02:48:36;8.10;99.90
23395;DHT22;11870;53.084;18.206;2022-11-14T02:51:02;8.10;99.90
23395;DHT22;11870;53.084;18.206;2022-11-14T02:53:27;8.20;99.90
23395;DHT22;11870;53.084;18.206;2022-11-14T02:55:54;8.20;99.90
23395;DHT22;11870;53.084;18.206;2022-11-14T02:58:19;8.20;99.90
23395;DHT22;11870;53.084;18.206;2022-11-14T03:00:45;8.10;99.90
23395;DHT22;11870;53.084;18.206;2022-11-14T03:03:11;8.10;99.90
23395;DHT22;11870;53.084;18.206;2022-11-14T03:05:37;8.10;99.90
23395;DHT22;11870;53.084;18.206;2022-11-14T03:08:03;8.20;99.90
23395;DHT22;11870;53.084;18.206;2022-11-14T03:10:29;8.20;99.90
23395;DHT22;11870;53.084;18.206;2022-11-14T03:12:55;8.20;99.90
23395;DHT22;11870;53.084;18.206;2022-11-14T03:15:22;8.20;99.90
23395;DHT22;11870;53.084;18.206;2022-11-14T03:17:49;8.10;99.90
23395;DHT22;11870;53.084;18.206;2022-11-14T03:20:16;8.10;99.90
23395;DHT22;11870;53.084;18.206;2022-11-14T03:22:42;8.10;99.90
23395;DHT22;11870;53.084;18.206;2022-11-14T03:25:08;8.20;99.90
23395;DHT22;11870;53.084;18.206;2022-11-14T03:27:34;8.20;99.90
23395;DHT22;11870;53.084;18.206;2022-11-14T03:30:00;8.30;99.90
23395;DHT22;11870;53.084;18.206;2022-11-14T03:32:26;8.30;99.90
23395;DHT22;11870;53.084;18.206;2022-11-14T03:34:52;8.30;99.90
23395;DHT22;11870;53.084;18.206;2022-11-14T03:37:17;8.20;99.90
23395;DHT22;11870;53.084;18.206;2022-11-14T03:39:43;8.20;99.90
23395;DHT22;11870;53.084;18.206;2022-11-14T03:42:09;8.20;99.90
23395;DHT22;11870;53.084;18.206;2022-11-14T03:44:35;8.30;99.90
23395;DHT22;11870;53.084;18.206;2022-11-14T03:47:01;8.30;99.90
23395;DHT22;11870;53.084;18.206;2022-11-14T03:49:27;8.30;99.90
23395;DHT22;11870;53.084;18.206;2022-11-14T03:51:53;8.30;99.90
23395;DHT22;11870;53.084;18.206;2022-11-14T03:54:19;8.30;99.90
23395;DHT22;11870;53.084;18.206;2022-11-14T03:56:44;8.30;99.90
23395;DHT22;11870;53.084;18.206;2022-11-14T03:59:11;8.20;99.90
23395;DHT22;11870;53.084;18.206;2022-11-14T04:01:36;8.20;99.90
23395;DHT22;11870;53.084;18.206;2022-11-14T04:04:02;8.20;99.90
23395;DHT22;11870;53.084;18.206;2022-11-14T04:06:28;8.20;99.90
23395;DHT22;11870;53.084;18.206;2022-11-14T04:08:54;8.20;99.90
23395;DHT22;11870;53.084;18.206;2022-11-14T04:11:21;8.20;99.90
23395;DHT22;11870;53.084;18.206;2022-11-14T04:13:47;8.20;99.90
23395;DHT22;11870;53.084;18.206;2022-11-14T04:16:13;8.20;99.90
23395;DHT22;11870;53.084;18.206;2022-11-14T04:18:39;8.20;99.90
23395;DHT22;11870;53.084;18.206;2022-11-14T04:21:05;8.10;99.90
23395;DHT22;11870;53.084;18.206;2022-11-14T04:23:30;8.20;99.90
23395;DHT22;11870;53.084;18.206;2022-11-14T04:25:56;8.20;99.90
23395;DHT22;11870;53.084;18.206;2022-11-14T04:28:22;8.20;99.90
23395;DHT22;11870;53.084;18.206;2022-11-14T04:30:48;8.30;99.90
23395;DHT22;11870;53.084;18.206;2022-11-14T04:33:14;8.20;99.90
23395;DHT22;11870;53.084;18.206;2022-11-14T04:35:40;8.20;99.90
23395;DHT22;11870;53.084;18.206;2022-11-14T04:38:06;8.30;99.90
23395;DHT22;11870;53.084;18.206;2022-11-14T04:40:32;8.30;99.90
23395;DHT22;11870;53.084;18.206;2022-11-14T04:42:58;8.30;99.90
23395;DHT22;11870;53.084;18.206;2022-11-14T04:45:24;8.30;99.90
23395;DHT22;11870;53.084;18.206;2022-11-14T04:47:49;8.30;99.90
23395;DHT22;11870;53.084;18.206;2022-11-14T04:50:15;8.30;99.90
23395;DHT22;11870;53.084;18.206;2022-11-14T04:52:41;8.30;99.90
23395;DHT22;11870;53.084;18.206;2022-11-14T04:55:07;8.20;99.90
23395;DHT22;11870;53.084;18.206;2022-11-14T04:57:33;8.20;99.90
23395;DHT22;11870;53.084;18.206;2022-11-14T04:59:59;8.20;99.90
23395;DHT22;11870;53.084;18.206;2022-11-14T05:02:25;8.20;99.90
23395;DHT22;11870;53.084;18.206;2022-11-14T05:04:51;8.20;99.90
23395;DHT22;11870;53.084;18.206;2022-11-14T05:07:17;8.20;99.90
23395;DHT22;11870;53.084;18.206;2022-11-14T05:09:43;8.20;99.90
23395;DHT22;11870;53.084;18.206;2022-11-14T05:12:08;8.20;99.90
23395;DHT22;11870;53.084;18.206;2022-11-14T05:14:34;8.10;99.90
23395;DHT22;11870;53.084;18.206;2022-11-14T05:17:00;8.20;99.90
23395;DHT22;11870;53.084;18.206;2022-11-14T05:19:26;8.20;99.90
23395;DHT22;11870;53.084;18.206;2022-11-14T05:21:52;8.10;99.90
23395;DHT22;11870;53.084;18.206;2022-11-14T05:24:18;8.10;99.90
23395;DHT22;11870;53.084;18.206;2022-11-14T05:26:45;8.10;99.90
23395;DHT22;11870;53.084;18.206;2022-11-14T05:29:11;8.10;99.90
23395;DHT22;11870;53.084;18.206;2022-11-14T05:31:37;8.10;99.90
23395;DHT22;11870;53.084;18.206;2022-11-14T05:34:03;8.20;99.90
23395;DHT22;11870;53.084;18.206;2022-11-14T05:36:28;8.60;99.90
23395;DHT22;11870;53.084;18.206;2022-11-14T05:38:54;8.60;99.90
23395;DHT22;11870;53.084;18.206;2022-11-14T05:41:20;8.20;99.90
23395;DHT22;11870;53.084;18.206;2022-11-14T05:43:47;8.20;99.90
23395;DHT22;11870;53.084;18.206;2022-11-14T05:46:14;8.10;99.90
23395;DHT22;11870;53.084;18.206;2022-11-14T05:48:41;8.10;99.90
23395;DHT22;11870;53.084;18.206;2022-11-14T05:51:10;8.10;99.90
23395;DHT22;11870;53.084;18.206;2022-11-14T05:53:36;8.00;99.90
23395;DHT22;11870;53.084;18.206;2022-11-14T05:56:10;8.00;99.90
23395;DHT22;11870;53.084;18.206;2022-11-14T05:58:37;8.00;99.90
23395;DHT22;11870;53.084;18.206;2022-11-14T06:01:13;8.00;99.90
23395;DHT22;11870;53.084;18.206;2022-11-14T06:03:41;7.90;99.90
23395;DHT22;11870;53.084;18.206;2022-11-14T06:06:09;7.80;99.90
23395;DHT22;11870;53.084;18.206;2022-11-14T06:08:36;7.90;99.90
23395;DHT22;11870;53.084;18.206;2022-11-14T06:11:10;7.90;99.90
23395;DHT22;11870;53.084;18.206;2022-11-14T06:13:37;7.90;99.90
23395;DHT22;11870;53.084;18.206;2022-11-14T06:16:08;7.80;99.90
23395;DHT22;11870;53.084;18.206;2022-11-14T06:18:35;7.80;99.90
23395;DHT22;11870;53.084;18.206;2022-11-14T06:23:30;7.80;99.90
23395;DHT22;11870;53.084;18.206;2022-11-14T06:26:00;7.80;99.90
23395;DHT22;11870;53.084;18.206;2022-11-14T06:28:27;7.80;99.90
23395;DHT22;11870;53.084;18.206;2022-11-14T06:30:57;7.80;99.90
23395;DHT22;11870;53.084;18.206;2022-11-14T06:33:23;7.80;99.90
23395;DHT22;11870;53.084;18.206;2022-11-14T06:35:49;7.80;99.90
23395;DHT22;11870;53.084;18.206;2022-11-14T06:38:15;7.80;99.90
23395;DHT22;11870;53.084;18.206;2022-11-14T06:40:41;7.80;99.90
23395;DHT22;11870;53.084;18.206;2022-11-14T06:43:06;7.70;99.90
23395;DHT22;11870;53.084;18.206;2022-11-14T06:45:32;7.70;99.90
23395;DHT22;11870;53.084;18.206;2022-11-14T06:47:58;7.80;99.90
23395;DHT22;11870;53.084;18.206;2022-11-14T06:50:25;7.70;99.90
23395;DHT22;11870;53.084;18.206;2022-11-14T06:52:51;7.70;99.90
23395;DHT22;11870;53.084;18.206;2022-11-14T06:55:17;7.60;99.90
23395;DHT22;11870;53.084;18.206;2022-11-14T06:57:42;7.60;99.90
23395;DHT22;11870;53.084;18.206;2022-11-14T07:00:09;8.30;99.90
23395;DHT22;11870;53.084;18.206;2022-11-14T07:02:35;7.70;99.90
23395;DHT22;11870;53.084;18.206;2022-11-14T07:05:01;7.70;99.90
23395;DHT22;11870;53.084;18.206;2022-11-14T07:07:26;7.70;99.90
23395;DHT22;11870;53.084;18.206;2022-11-14T07:09:52;7.70;99.90
23395;DHT22;11870;53.084;18.206;2022-11-14T07:12:21;7.70;99.90
23395;DHT22;11870;53.084;18.206;2022-11-14T07:14:47;7.70;99.90
23395;DHT22;11870;53.084;18.206;2022-11-14T07:17:12;7.80;99.90
23395;DHT22;11870;53.084;18.206;2022-11-14T07:19:39;10.00;99.90
23395;DHT22;11870;53.084;18.206;2022-11-14T07:22:05;7.70;99.90
23395;DHT22;11870;53.084;18.206;2022-11-14T07:24:31;7.80;99.90
23395;DHT22;11870;53.084;18.206;2022-11-14T07:26:56;7.80;99.90
23395;DHT22;11870;53.084;18.206;2022-11-14T07:29:22;7.90;99.90
23395;DHT22;11870;53.084;18.206;2022-11-14T07:31:48;7.90;99.90
23395;DHT22;11870;53.084;18.206;2022-11-14T07:34:14;7.90;99.90
23395;DHT22;11870;53.084;18.206;2022-11-14T07:36:40;7.90;99.90
23395;DHT22;11870;53.084;18.206;2022-11-14T07:39:06;7.80;99.90
23395;DHT22;11870;53.084;18.206;2022-11-14T07:41:32;7.80;99.90
23395;DHT22;11870;53.084;18.206;2022-11-14T07:43:58;7.80;99.90
23395;DHT22;11870;53.084;18.206;2022-11-14T07:46:24;7.80;99.90
23395;DHT22;11870;53.084;18.206;2022-11-14T07:48:50;7.70;99.90
23395;DHT22;11870;53.084;18.206;2022-11-14T07:51:18;7.60;99.90
23395;DHT22;11870;53.084;18.206;2022-11-14T07:53:44;7.70;99.90
23395;DHT22;11870;53.084;18.206;2022-11-14T07:56:10;7.80;99.90
23395;DHT22;11870;53.084;18.206;2022-11-14T07:58:39;7.80;99.90
23395;DHT22;11870;53.084;18.206;2022-11-14T08:01:06;7.70;99.90
23395;DHT22;11870;53.084;18.206;2022-11-14T08:03:34;7.70;99.90
23395;DHT22;11870;53.084;18.206;2022-11-14T08:08:30;7.80;99.90
23395;DHT22;11870;53.084;18.206;2022-11-14T08:10:59;7.90;99.90
23395;DHT22;11870;53.084;18.206;2022-11-14T08:13:26;7.70;99.90
23395;DHT22;11870;53.084;18.206;2022-11-14T08:15:53;7.80;99.90
23395;DHT22;11870;53.084;18.206;2022-11-14T08:18:19;7.70;99.90
23395;DHT22;11870;53.084;18.206;2022-11-14T08:20:48;7.80;99.90
23395;DHT22;11870;53.084;18.206;2022-11-14T08:23:14;7.80;99.90
23395;DHT22;11870;53.084;18.206;2022-11-14T08:25:41;7.80;99.90
23395;DHT22;11870;53.084;18.206;2022-11-14T08:28:07;7.80;99.90
23395;DHT22;11870;53.084;18.206;2022-11-14T08:30:34;7.70;99.90
23395;DHT22;11870;53.084;18.206;2022-11-14T08:33:04;7.80;99.90
23395;DHT22;11870;53.084;18.206;2022-11-14T08:35:32;7.80;99.90
23395;DHT22;11870;53.084;18.206;2022-11-14T08:38:01;7.80;99.90
23395;DHT22;11870;53.084;18.206;2022-11-14T08:40:28;7.80;99.90
23395;DHT22;11870;53.084;18.206;2022-11-14T08:42:59;7.80;99.90
23395;DHT22;11870;53.084;18.206;2022-11-14T08:45:25;7.80;99.90
23395;DHT22;11870;53.084;18.206;2022-11-14T08:47:52;7.80;99.90
23395;DHT22;11870;53.084;18.206;2022-11-14T08:50:18;7.90;99.90
23395;DHT22;11870;53.084;18.206;2022-11-14T08:52:51;8.00;99.90
23395;DHT22;11870;53.084;18.206;2022-11-14T08:55:20;7.90;99.90
23395;DHT22;11870;53.084;18.206;2022-11-14T08:57:46;7.90;99.90
23395;DHT22;11870;53.084;18.206;2022-11-14T09:00:13;8.00;99.90
23395;DHT22;11870;53.084;18.206;2022-11-14T09:02:39;8.10;99.90
23395;DHT22;11870;53.084;18.206;2022-11-14T09:05:06;8.10;99.90
23395;DHT22;11870;53.084;18.206;2022-11-14T09:07:32;8.10;99.90
23395;DHT22;11870;53.084;18.206;2022-11-14T09:09:58;8.10;99.90
23395;DHT22;11870;53.084;18.206;2022-11-14T09:12:24;8.10;99.90
23395;DHT22;11870;53.084;18.206;2022-11-14T09:14:50;8.10;99.90
23395;DHT22;11870;53.084;18.206;2022-11-14T09:17:17;8.00;99.90
23395;DHT22;11870;53.084;18.206;2022-11-14T09:19:43;8.00;99.90
23395;DHT22;11870;53.084;18.206;2022-11-14T09:22:09;8.00;99.90
23395;DHT22;11870;53.084;18.206;2022-11-14T09:24:35;8.00;99.90
23395;DHT22;11870;53.084;18.206;2022-11-14T09:27:01;8.10;99.90
23395;DHT22;11870;53.084;18.206;2022-11-14T09:29:27;8.20;99.90
23395;DHT22;11870;53.084;18.206;2022-11-14T09:31:53;8.20;99.90
23395;DHT22;11870;53.084;18.206;2022-11-14T09:34:20;8.30;99.90
23395;DHT22;11870;53.084;18.206;2022-11-14T09:36:46;8.30;99.90
23395;DHT22;11870;53.084;18.206;2022-11-14T09:39:12;8.30;99.90
23395;DHT22;11870;53.084;18.206;2022-11-14T09:47:04;8.30;99.90
23395;DHT22;11870;53.084;18.206;2022-11-14T09:49:40;8.20;99.90
23395;DHT22;11870;53.084;18.206;2022-11-14T09:54:58;8.30;99.90
23395;DHT22;11870;53.084;18.206;2022-11-14T09:57:26;8.30;99.90
23395;DHT22;11870;53.084;18.206;2022-11-14T09:59:54;8.30;99.90
23395;DHT22;11870;53.084;18.206;2022-11-14T10:13:51;8.40;99.90
23395;DHT22;11870;53.084;18.206;2022-11-14T10:27:35;8.70;99.90
23395;DHT22;11870;53.084;18.206;2022-11-14T10:35:20;8.80;99.90
23395;DHT22;11870;53.084;18.206;2022-11-14T10:38:16;8.80;99.90
23395;DHT22;11870;53.084;18.206;2022-11-14T10:40:47;8.90;99.90
23395;DHT22;11870;53.084;18.206;2022-11-14T10:43:37;8.90;99.90
23395;DHT22;11870;53.084;18.206;2022-11-14T10:48:42;9.10;99.90
23395;DHT22;11870;53.084;18.206;2022-11-14T10:53:59;9.00;99.90
23395;DHT22;11870;53.084;18.206;2022-11-14T10:56:27;9.00;99.90
23395;DHT22;11870;53.084;18.206;2022-11-14T10:58:53;8.90;99.90
23395;DHT22;11870;53.084;18.206;2022-11-14T11:01:36;8.90;99.90
23395;DHT22;11870;53.084;18.206;2022-11-14T11:06:48;8.80;99.90
23395;DHT22;11870;53.084;18.206;2022-11-14T11:09:27;8.80;99.90
23395;DHT22;11870;53.084;18.206;2022-11-14T11:12:16;8.90;99.90
23395;DHT22;11870;53.084;18.206;2022-11-14T11:14:44;9.00;99.90
23395;DHT22;11870;53.084;18.206;2022-11-14T11:19:38;9.20;99.90
23395;DHT22;11870;53.084;18.206;2022-11-14T11:24:48;9.30;99.90
23395;DHT22;11870;53.084;18.206;2022-11-14T11:27:26;9.30;99.90
23395;DHT22;11870;53.084;18.206;2022-11-14T11:30:17;9.20;99.90
23395;DHT22;11870;53.084;18.206;2022-11-14T11:32:43;9.30;99.90
23395;DHT22;11870;53.084;18.206;2022-11-14T11:35:14;9.30;99.90
23395;DHT22;11870;53.084;18.206;2022-11-14T11:38:01;9.20;99.90
23395;DHT22;11870;53.084;18.206;2022-11-14T11:40:28;9.30;99.90
23395;DHT22;11870;53.084;18.206;2022-11-14T11:45:21;9.10;99.90
23395;DHT22;11870;53.084;18.206;2022-11-14T11:47:56;9.00;99.90
23395;DHT22;11870;53.084;18.206;2022-11-14T11:50:23;9.00;99.90
23395;DHT22;11870;53.084;18.206;2022-11-14T11:55:47;9.00;99.90
23395;DHT22;11870;53.084;18.206;2022-11-14T12:01:07;9.00;99.90
23395;DHT22;11870;53.084;18.206;2022-11-14T12:03:33;9.00;99.90
23395;DHT22;11870;53.084;18.206;2022-11-14T12:11:31;9.10;99.90
23395;DHT22;11870;53.084;18.206;2022-11-14T12:25:43;9.00;99.90
23395;DHT22;11870;53.084;18.206;2022-11-14T12:28:14;9.00;99.90
23395;DHT22;11870;53.084;18.206;2022-11-14T12:30:47;8.90;99.90
23395;DHT22;11870;53.084;18.206;2022-11-14T12:33:35;8.90;99.90
23395;DHT22;11870;53.084;18.206;2022-11-14T12:36:03;8.90;99.90
23395;DHT22;11870;53.084;18.206;2022-11-14T12:38:39;8.90;99.90
23395;DHT22;11870;53.084;18.206;2022-11-14T12:41:08;9.00;99.90
23395;DHT22;11870;53.084;18.206;2022-11-14T12:43:41;9.00;99.90
23395;DHT22;11870;53.084;18.206;2022-11-14T12:46:09;9.10;99.90
23395;DHT22;11870;53.084;18.206;2022-11-14T12:48:37;9.10;99.90
23395;DHT22;11870;53.084;18.206;2022-11-14T12:51:47;9.10;99.90
23395;DHT22;11870;53.084;18.206;2022-11-14T12:53:55;9.20;99.90
23395;DHT22;11870;53.084;18.206;2022-11-14T12:56:43;9.10;99.90
23395;DHT22;11870;53.084;18.206;2022-11-14T12:59:29;9.00;99.90
23395;DHT22;11870;53.084;18.206;2022-11-14T13:10:39;8.80;99.90
23395;DHT22;11870;53.084;18.206;2022-11-14T13:13:07;8.70;99.90
23395;DHT22;11870;53.084;18.206;2022-11-14T13:15:56;8.80;99.90
23395;DHT22;11870;53.084;18.206;2022-11-14T13:19:14;8.80;99.90
23395;DHT22;11870;53.084;18.206;2022-11-14T13:22:22;8.80;99.90
23395;DHT22;11870;53.084;18.206;2022-11-14T13:27:33;8.70;99.90
23395;DHT22;11870;53.084;18.206;2022-11-14T13:30:00;8.70;99.90
23395;DHT22;11870;53.084;18.206;2022-11-14T13:35:29;8.70;99.90
23395;DHT22;11870;53.084;18.206;2022-11-14T13:41:20;8.60;99.90
23395;DHT22;11870;53.084;18.206;2022-11-14T13:44:01;8.60;99.90
23395;DHT22;11870;53.084;18.206;2022-11-14T13:46:36;8.60;99.90
23395;DHT22;11870;53.084;18.206;2022-11-14T13:49:23;8.60;99.90
23395;DHT22;11870;53.084;18.206;2022-11-14T13:51:54;8.50;99.90
23395;DHT22;11870;53.084;18.206;2022-11-14T13:54:20;8.50;99.90
23395;DHT22;11870;53.084;18.206;2022-11-14T13:59:53;8.60;99.90
23395;DHT22;11870;53.084;18.206;2022-11-14T14:07:57;8.70;99.90
23395;DHT22;11870;53.084;18.206;2022-11-14T14:13:21;8.70;99.90
23395;DHT22;11870;53.084;18.206;2022-11-14T14:16:09;8.70;99.90
23395;DHT22;11870;53.084;18.206;2022-11-14T14:21:44;8.70;99.90
23395;DHT22;11870;53.084;18.206;2022-11-14T14:29:34;8.60;99.90
23395;DHT22;11870;53.084;18.206;2022-11-14T14:32:15;8.50;99.90
23395;DHT22;11870;53.084;18.206;2022-11-14T14:34:41;8.50;99.90
23395;DHT22;11870;53.084;18.206;2022-11-14T14:37:19;8.40;99.90
23395;DHT22;11870;53.084;18.206;2022-11-14T14:42:29;8.40;99.90
23395;DHT22;11870;53.084;18.206;2022-11-14T14:44:58;8.50;99.90
23395;DHT22;11870;53.084;18.206;2022-11-14T14:50:02;8.40;99.90
23395;DHT22;11870;53.084;18.206;2022-11-14T14:52:34;8.40;99.90
23395;DHT22;11870;53.084;18.206;2022-11-14T14:55:06;8.40;99.90
23395;DHT22;11870;53.084;18.206;2022-11-14T14:57:41;8.40;99.90
23395;DHT22;11870;53.084;18.206;2022-11-14T15:02:42;8.50;99.90
23395;DHT22;11870;53.084;18.206;2022-11-14T15:05:08;8.40;99.90
23395;DHT22;11870;53.084;18.206;2022-11-14T15:07:37;8.40;99.90
23395;DHT22;11870;53.084;18.206;2022-11-14T15:10:05;8.30;99.90
23395;DHT22;11870;53.084;18.206;2022-11-14T15:12:35;8.30;99.90
23395;DHT22;11870;53.084;18.206;2022-11-14T15:15:01;8.40;99.90
23395;DHT22;11870;53.084;18.206;2022-11-14T15:17:28;8.40;99.90
23395;DHT22;11870;53.084;18.206;2022-11-14T15:19:54;8.40;99.90
23395;DHT22;11870;53.084;18.206;2022-11-14T15:22:25;8.30;99.90
23395;DHT22;11870;53.084;18.206;2022-11-14T15:27:50;8.20;99.90
23395;DHT22;11870;53.084;18.206;2022-11-14T15:30:33;8.20;99.90
23395;DHT22;11870;53.084;18.206;2022-11-14T15:33:04;8.20;99.90
23395;DHT22;11870;53.084;18.206;2022-11-14T15:35:38;8.20;99.90
23395;DHT22;11870;53.084;18.206;2022-11-14T15:40:39;8.30;99.90
23395;DHT22;11870;53.084;18.206;2022-11-14T15:46:03;8.30;99.90
23395;DHT22;11870;53.084;18.206;2022-11-14T15:48:30;8.30;99.90
23395;DHT22;11870;53.084;18.206;2022-11-14T15:50:56;8.20;99.90
23395;DHT22;11870;53.084;18.206;2022-11-14T15:53:23;8.20;99.90
23395;DHT22;11870;53.084;18.206;2022-11-14T15:55:50;8.10;99.90
23395;DHT22;11870;53.084;18.206;2022-11-14T15:58:16;8.10;99.90
23395;DHT22;11870;53.084;18.206;2022-11-14T16:00:50;8.20;99.90
23395;DHT22;11870;53.084;18.206;2022-11-14T16:03:19;8.30;99.90
23395;DHT22;11870;53.084;18.206;2022-11-14T16:05:46;8.20;99.90
23395;DHT22;11870;53.084;18.206;2022-11-14T16:08:12;8.20;99.90
23395;DHT22;11870;53.084;18.206;2022-11-14T16:10:38;8.20;99.90
23395;DHT22;11870;53.084;18.206;2022-11-14T16:13:04;8.20;99.90
23395;DHT22;11870;53.084;18.206;2022-11-14T16:15:30;8.20;99.90
23395;DHT22;11870;53.084;18.206;2022-11-14T16:17:57;8.30;99.90
23395;DHT22;11870;53.084;18.206;2022-11-14T16:20:28;8.30;99.90
23395;DHT22;11870;53.084;18.206;2022-11-14T16:22:54;8.20;99.90
23395;DHT22;11870;53.084;18.206;2022-11-14T16:25:25;8.20;99.90
23395;DHT22;11870;53.084;18.206;2022-11-14T16:27:52;8.20;99.90
23395;DHT22;11870;53.084;18.206;2022-11-14T16:30:19;8.20;99.90
23395;DHT22;11870;53.084;18.206;2022-11-14T16:32:47;8.10;99.90
23395;DHT22;11870;53.084;18.206;2022-11-14T16:35:24;8.10;99.90
23395;DHT22;11870;53.084;18.206;2022-11-14T16:37:53;8.10;99.90
23395;DHT22;11870;53.084;18.206;2022-11-14T16:40:21;8.10;99.90
23395;DHT22;11870;53.084;18.206;2022-11-14T16:42:53;8.10;99.90
23395;DHT22;11870;53.084;18.206;2022-11-14T16:45:19;8.10;99.90
23395;DHT22;11870;53.084;18.206;2022-11-14T16:47:46;8.10;99.90
23395;DHT22;11870;53.084;18.206;2022-11-14T16:50:12;8.00;99.90
23395;DHT22;11870;53.084;18.206;2022-11-14T16:52:38;8.00;99.90
23395;DHT22;11870;53.084;18.206;2022-11-14T16:55:08;8.00;99.90
23395;DHT22;11870;53.084;18.206;2022-11-14T16:57:35;8.00;99.90
23395;DHT22;11870;53.084;18.206;2022-11-14T17:00:07;8.00;99.90
23395;DHT22;11870;53.084;18.206;2022-11-14T17:02:34;8.00;99.90
23395;DHT22;11870;53.084;18.206;2022-11-14T17:04:59;8.00;99.90
23395;DHT22;11870;53.084;18.206;2022-11-14T17:07:25;8.00;99.90
23395;DHT22;11870;53.084;18.206;2022-11-14T17:09:55;7.90;99.90
23395;DHT22;11870;53.084;18.206;2022-11-14T17:12:21;7.90;99.90
23395;DHT22;11870;53.084;18.206;2022-11-14T17:14:46;7.90;99.90
23395;DHT22;11870;53.084;18.206;2022-11-14T17:17:12;7.90;99.90
23395;DHT22;11870;53.084;18.206;2022-11-14T17:19:38;7.90;99.90
23395;DHT22;11870;53.084;18.206;2022-11-14T17:22:11;7.90;99.90
23395;DHT22;11870;53.084;18.206;2022-11-14T17:24:38;7.80;99.90
23395;DHT22;11870;53.084;18.206;2022-11-14T17:27:04;7.80;99.90
23395;DHT22;11870;53.084;18.206;2022-11-14T17:29:30;7.80;99.90
23395;DHT22;11870;53.084;18.206;2022-11-14T17:31:56;7.60;99.90
23395;DHT22;11870;53.084;18.206;2022-11-14T17:34:22;7.60;99.90
23395;DHT22;11870;53.084;18.206;2022-11-14T17:36:48;7.60;99.90
23395;DHT22;11870;53.084;18.206;2022-11-14T17:39:14;7.60;99.90
23395;DHT22;11870;53.084;18.206;2022-11-14T17:41:40;7.60;99.90
23395;DHT22;11870;53.084;18.206;2022-11-14T17:44:05;7.60;99.90
23395;DHT22;11870;53.084;18.206;2022-11-14T17:46:31;7.60;99.90
23395;DHT22;11870;53.084;18.206;2022-11-14T17:48:57;7.60;99.90
23395;DHT22;11870;53.084;18.206;2022-11-14T17:51:24;7.60;99.90
23395;DHT22;11870;53.084;18.206;2022-11-14T17:53:50;7.60;99.90
23395;DHT22;11870;53.084;18.206;2022-11-14T17:56:19;7.50;99.90